Beloit, Kansas
Current Conditions -  °F | °C
As of 9:55 AM on Saturday 22 Nov 2014 (Local Time) from KCNK Reporting Station
Haze Haze  
Wind Chill: 32°   Ceiling: 200
Heat Index: 40°   Visibility: 2mi
Dew Point: 40°   Wind: 15mph
Humidity: 100%   Direction: 190°S
Pressure: 29.88"   Gusts: NA
Location:  39.46°N, 98.11°W
Report Text: KCNK 221555Z AUTO 19013KT 2SM BR OVC002 04/04 A2988 RMK AO2 SLP126 T00440044
Loading
Personal Weather Stations






























Interactive Weather Map New forecast layout! Learn more

10-Day Weather Forecast

Advertisements
Track Severe Weather on mobile